Hovedside
METAR-TAF:

METAR-TAF

Lufthavner :

Helsingborg, Sverige

Ängelholm-Helsingborg lufthavn

breddegrad: 56-17-46N, lengdegrad: 012-50-50E, høyde over havet: 21 m

Gjeldene værobservasjon

Denne rapporten ble laget for 36 minutter siden, klokken 21:20 UTC
Vind 6 kt fra Sørøst
Temperatur 17°C
Luftfuktighet 94%
Trykk 1007 hPa
Sikt: 4900 m
dis

METAR: ESTA 182120Z AUTO 13006KT 4900 BR OVC088/// 17/16 Q1007 RERA

Tid: 23:56 (21:56 UTC)

Varsel

Denne rapporten ble laget for 4 timer og 44 minutter siden, klokken 17:12 UTC
Varsel gyldig fra 18. klokken 18 UTC til 18. klokken 21 UTC
Vind 8 kt fra Sør
Sikt 10 km eller mer
Brutte skyer i en høyde av 2000 ft
Midlertidig
fra 18. klokken 18 UTC til 18. klokken 21 UTC
Sikt: 4000 m
Brutte skyer i en høyde av 1000 ft
regn, dis

TAF: ESTA 181712Z 1818/1821 19008KT 9999 BKN020 TEMPO 1818/1821 4000 RA BR BKN010

Værobservasjoner og værvarsel for over 4000 flyplasser (METAR- og TAF-rapporter).

Tilgjengelige stasjoner er representert av de røde og gule prikkene på kartet.

Hold musepekeren over prikken for å se navnet på stasjonen.

Klikk så for å se værobservasjoner og -varsler.

For å forandre kartet kan du klikke på den grønne knappen med svart kryss for å zoome inn, på den grønne knappen med strek for å zoome ut, eller på de grønne pilene for å se tilstøtende kart.


METAR-TAF: